sensor_id;sensor_type;location;lat;lon;timestamp;pressure;altitude;pressure_sealevel;temperature;humidity
9822;BME280;4950;46.042;14.472;2022-07-23T00:00:07;97970.44;;;25.14;58.41
9822;BME280;4950;46.042;14.472;2022-07-23T00:02:34;97963.28;;;24.94;58.28
9822;BME280;4950;46.042;14.472;2022-07-23T00:05:01;97967.00;;;24.98;58.56
9822;BME280;4950;46.042;14.472;2022-07-23T00:07:28;97973.38;;;24.97;58.13
9822;BME280;4950;46.042;14.472;2022-07-23T00:09:54;97966.72;;;24.95;58.28
9822;BME280;4950;46.042;14.472;2022-07-23T00:12:21;97965.94;;;24.94;58.50
9822;BME280;4950;46.042;14.472;2022-07-23T00:14:48;97964.59;;;24.97;58.44
9822;BME280;4950;46.042;14.472;2022-07-23T00:17:16;97968.59;;;24.89;58.39
9822;BME280;4950;46.042;14.472;2022-07-23T00:19:42;97959.56;;;24.85;58.59
9822;BME280;4950;46.042;14.472;2022-07-23T00:22:09;97960.88;;;24.77;59.37
9822;BME280;4950;46.042;14.472;2022-07-23T00:24:36;97960.59;;;24.74;59.06
9822;BME280;4950;46.042;14.472;2022-07-23T00:27:02;97964.59;;;24.71;59.00
9822;BME280;4950;46.042;14.472;2022-07-23T00:29:29;97966.16;;;24.72;58.83
9822;BME280;4950;46.042;14.472;2022-07-23T00:31:55;97965.13;;;24.73;58.97
9822;BME280;4950;46.042;14.472;2022-07-23T00:34:23;97965.63;;;24.70;58.99
9822;BME280;4950;46.042;14.472;2022-07-23T00:36:50;97970.41;;;24.68;59.07
9822;BME280;4950;46.042;14.472;2022-07-23T00:39:19;97965.13;;;24.63;59.26
9822;BME280;4950;46.042;14.472;2022-07-23T00:41:46;97963.78;;;24.60;59.68
9822;BME280;4950;46.042;14.472;2022-07-23T00:44:17;97974.94;;;24.57;60.01
9822;BME280;4950;46.042;14.472;2022-07-23T00:46:46;97975.69;;;24.53;60.09
9822;BME280;4950;46.042;14.472;2022-07-23T00:49:12;97966.16;;;24.52;59.63
9822;BME280;4950;46.042;14.472;2022-07-23T00:51:40;97979.13;;;24.48;59.83
9822;BME280;4950;46.042;14.472;2022-07-23T00:54:07;97975.94;;;24.46;60.20
9822;BME280;4950;46.042;14.472;2022-07-23T00:56:34;97967.94;;;24.41;60.32
9822;BME280;4950;46.042;14.472;2022-07-23T00:59:01;97963.19;;;24.38;60.97
9822;BME280;4950;46.042;14.472;2022-07-23T01:01:28;97960.28;;;24.39;60.95
9822;BME280;4950;46.042;14.472;2022-07-23T01:03:54;97961.31;;;24.38;60.90
9822;BME280;4950;46.042;14.472;2022-07-23T01:06:21;97955.22;;;24.38;60.66
9822;BME280;4950;46.042;14.472;2022-07-23T01:08:49;97948.59;;;24.35;60.34
9822;BME280;4950;46.042;14.472;2022-07-23T01:11:16;97948.81;;;24.29;60.57
9822;BME280;4950;46.042;14.472;2022-07-23T01:13:44;97942.19;;;24.26;60.50
9822;BME280;4950;46.042;14.472;2022-07-23T01:16:11;97938.19;;;24.29;60.85
9822;BME280;4950;46.042;14.472;2022-07-23T01:18:37;97934.50;;;24.30;61.05
9822;BME280;4950;46.042;14.472;2022-07-23T01:21:04;97936.09;;;24.26;61.28
9822;BME280;4950;46.042;14.472;2022-07-23T01:23:32;97937.38;;;24.23;61.41
9822;BME280;4950;46.042;14.472;2022-07-23T01:25:58;97929.16;;;24.19;61.08
9822;BME280;4950;46.042;14.472;2022-07-23T01:28:25;97929.44;;;24.18;61.54
9822;BME280;4950;46.042;14.472;2022-07-23T01:30:51;97931.56;;;24.16;60.93
9822;BME280;4950;46.042;14.472;2022-07-23T01:33:18;97925.69;;;24.09;60.22
9822;BME280;4950;46.042;14.472;2022-07-23T01:35:45;97920.63;;;24.07;60.00
9822;BME280;4950;46.042;14.472;2022-07-23T01:38:11;97927.28;;;24.04;60.77
9822;BME280;4950;46.042;14.472;2022-07-23T01:40:39;97925.13;;;24.01;60.88
9822;BME280;4950;46.042;14.472;2022-07-23T01:43:06;97924.06;;;23.97;61.13
9822;BME280;4950;46.042;14.472;2022-07-23T01:45:32;97917.97;;;23.97;60.76
9822;BME280;4950;46.042;14.472;2022-07-23T01:47:59;97926.19;;;24.00;60.99
9822;BME280;4950;46.042;14.472;2022-07-23T01:50:25;97926.41;;;23.94;60.71
9822;BME280;4950;46.042;14.472;2022-07-23T01:52:52;97930.13;;;23.88;60.50
9822;BME280;4950;46.042;14.472;2022-07-23T01:55:18;97932.47;;;23.84;60.78
9822;BME280;4950;46.042;14.472;2022-07-23T01:57:47;97924.25;;;23.80;60.94
9822;BME280;4950;46.042;14.472;2022-07-23T02:00:14;97934.34;;;23.83;60.84
9822;BME280;4950;46.042;14.472;2022-07-23T02:02:40;97931.91;;;23.77;60.83
9822;BME280;4950;46.042;14.472;2022-07-23T02:05:08;97929.22;;;23.72;60.78
9822;BME280;4950;46.042;14.472;2022-07-23T02:07:34;97932.91;;;23.71;61.08
9822;BME280;4950;46.042;14.472;2022-07-23T02:10:01;97924.16;;;23.70;60.79
9822;BME280;4950;46.042;14.472;2022-07-23T02:12:27;97931.31;;;23.64;61.65
9822;BME280;4950;46.042;14.472;2022-07-23T02:14:56;97936.59;;;23.59;61.56
9822;BME280;4950;46.042;14.472;2022-07-23T02:17:22;97942.09;;;23.53;61.81
9822;BME280;4950;46.042;14.472;2022-07-23T02:19:49;97942.09;;;23.48;62.27
9822;BME280;4950;46.042;14.472;2022-07-23T02:22:15;97948.19;;;23.48;62.29
9822;BME280;4950;46.042;14.472;2022-07-23T02:24:42;97953.97;;;23.45;62.23
9822;BME280;4950;46.042;14.472;2022-07-23T02:27:08;97954.22;;;23.43;62.56
9822;BME280;4950;46.042;14.472;2022-07-23T02:29:35;97957.91;;;23.37;63.04
9822;BME280;4950;46.042;14.472;2022-07-23T02:32:03;97962.72;;;23.40;62.40
9822;BME280;4950;46.042;14.472;2022-07-23T02:34:30;97963.75;;;23.39;63.17
9822;BME280;4950;46.042;14.472;2022-07-23T02:36:57;97962.16;;;23.38;63.21
9822;BME280;4950;46.042;14.472;2022-07-23T02:39:23;97961.38;;;23.38;62.81
9822;BME280;4950;46.042;14.472;2022-07-23T02:41:50;97958.19;;;23.36;63.02
9822;BME280;4950;46.042;14.472;2022-07-23T02:44:16;97954.66;;;23.25;62.94
9822;BME280;4950;46.042;14.472;2022-07-23T02:46:43;97947.47;;;23.20;63.11
9822;BME280;4950;46.042;14.472;2022-07-23T02:49:11;97953.53;;;23.16;63.58
9822;BME280;4950;46.042;14.472;2022-07-23T02:51:37;97952.72;;;23.15;63.52
9822;BME280;4950;46.042;14.472;2022-07-23T02:54:04;97949.03;;;23.16;63.18
9822;BME280;4950;46.042;14.472;2022-07-23T02:56:31;97942.13;;;23.15;62.64
9822;BME280;4950;46.042;14.472;2022-07-23T02:58:58;97941.81;;;23.06;62.14
9822;BME280;4950;46.042;14.472;2022-07-23T03:01:24;97946.66;;;22.87;63.27
9822;BME280;4950;46.042;14.472;2022-07-23T03:03:51;97947.53;;;22.66;63.53
9822;BME280;4950;46.042;14.472;2022-07-23T03:06:19;97948.25;;;22.56;64.29
9822;BME280;4950;46.042;14.472;2022-07-23T03:08:45;97962.66;;;22.43;64.92
9822;BME280;4950;46.042;14.472;2022-07-23T03:11:12;97964.88;;;22.30;65.78
9822;BME280;4950;46.042;14.472;2022-07-23T03:13:39;97958.81;;;22.29;65.53
9822;BME280;4950;46.042;14.472;2022-07-23T03:16:06;97958.56;;;22.31;65.57
9822;BME280;4950;46.042;14.472;2022-07-23T03:18:34;97966.06;;;22.39;65.10
9822;BME280;4950;46.042;14.472;2022-07-23T03:21:00;97970.09;;;22.46;65.43
9822;BME280;4950;46.042;14.472;2022-07-23T03:23:28;97978.59;;;22.48;65.49
9822;BME280;4950;46.042;14.472;2022-07-23T03:25:55;97987.09;;;22.51;65.62
9822;BME280;4950;46.042;14.472;2022-07-23T03:28:21;97984.44;;;22.51;65.21
9822;BME280;4950;46.042;14.472;2022-07-23T03:30:48;97990.03;;;22.54;65.49
9822;BME280;4950;46.042;14.472;2022-07-23T03:33:15;97994.03;;;22.57;65.52
9822;BME280;4950;46.042;14.472;2022-07-23T03:35:42;97989.81;;;22.61;65.58
9822;BME280;4950;46.042;14.472;2022-07-23T03:38:09;97987.69;;;22.58;65.85
9822;BME280;4950;46.042;14.472;2022-07-23T03:40:37;97996.97;;;22.60;65.43
9822;BME280;4950;46.042;14.472;2022-07-23T03:43:03;97989.13;;;22.43;65.52
9822;BME280;4950;46.042;14.472;2022-07-23T03:45:30;97997.03;;;22.43;65.53
9822;BME280;4950;46.042;14.472;2022-07-23T03:47:57;97991.72;;;22.38;65.67
9822;BME280;4950;46.042;14.472;2022-07-23T03:50:24;97991.16;;;22.36;65.84
9822;BME280;4950;46.042;14.472;2022-07-23T03:52:50;97998.50;;;22.29;65.55
9822;BME280;4950;46.042;14.472;2022-07-23T03:55:17;98002.16;;;22.28;65.93
9822;BME280;4950;46.042;14.472;2022-07-23T03:57:45;97999.03;;;22.31;65.90
9822;BME280;4950;46.042;14.472;2022-07-23T04:00:12;97997.94;;;22.27;65.72
9822;BME280;4950;46.042;14.472;2022-07-23T04:02:40;98002.16;;;22.28;65.51
9822;BME280;4950;46.042;14.472;2022-07-23T04:05:07;98002.69;;;22.25;65.76
9822;BME280;4950;46.042;14.472;2022-07-23T04:07:33;98006.31;;;22.24;65.60
9822;BME280;4950;46.042;14.472;2022-07-23T04:10:00;98010.09;;;22.28;65.76
9822;BME280;4950;46.042;14.472;2022-07-23T04:12:27;98011.16;;;22.27;65.45
9822;BME280;4950;46.042;14.472;2022-07-23T04:14:55;98006.66;;;22.27;65.71
9822;BME280;4950;46.042;14.472;2022-07-23T04:17:21;98006.91;;;22.26;65.35
9822;BME280;4950;46.042;14.472;2022-07-23T04:19:48;98007.19;;;22.24;65.36
9822;BME280;4950;46.042;14.472;2022-07-23T04:22:14;98003.13;;;22.22;65.34
9822;BME280;4950;46.042;14.472;2022-07-23T04:24:41;97994.53;;;22.09;65.27
9822;BME280;4950;46.042;14.472;2022-07-23T04:27:07;98000.78;;;22.03;66.14
9822;BME280;4950;46.042;14.472;2022-07-23T04:29:34;97997.72;;;22.12;66.14
9822;BME280;4950;46.042;14.472;2022-07-23T04:32:02;97994.09;;;22.18;65.98
9822;BME280;4950;46.042;14.472;2022-07-23T04:34:29;97995.53;;;22.25;66.23
9822;BME280;4950;46.042;14.472;2022-07-23T04:36:55;98000.38;;;22.34;66.25
9822;BME280;4950;46.042;14.472;2022-07-23T04:39:22;97996.69;;;22.35;65.98
9822;BME280;4950;46.042;14.472;2022-07-23T04:41:49;97992.75;;;22.37;66.04
9822;BME280;4950;46.042;14.472;2022-07-23T04:44:15;97993.84;;;22.41;65.61
9822;BME280;4950;46.042;14.472;2022-07-23T04:46:42;97998.13;;;22.42;64.22
9822;BME280;4950;46.042;14.472;2022-07-23T04:49:10;97988.56;;;22.41;63.58
9822;BME280;4950;46.042;14.472;2022-07-23T04:51:36;97982.25;;;22.42;63.82
9822;BME280;4950;46.042;14.472;2022-07-23T04:54:03;97993.69;;;22.48;62.82
9822;BME280;4950;46.042;14.472;2022-07-23T04:56:29;97996.94;;;22.33;63.11
9822;BME280;4950;46.042;14.472;2022-07-23T04:58:56;97990.56;;;22.29;63.49
9822;BME280;4950;46.042;14.472;2022-07-23T05:01:23;97990.03;;;22.32;63.54
9822;BME280;4950;46.042;14.472;2022-07-23T05:03:49;97982.69;;;22.34;63.43
9822;BME280;4950;46.042;14.472;2022-07-23T05:06:17;97983.41;;;22.30;63.39
9822;BME280;4950;46.042;14.472;2022-07-23T05:08:44;97987.81;;;22.24;63.60
9822;BME280;4950;46.042;14.472;2022-07-23T05:11:10;97996.25;;;22.21;64.27
9822;BME280;4950;46.042;14.472;2022-07-23T05:13:37;97988.03;;;22.22;63.78
9822;BME280;4950;46.042;14.472;2022-07-23T05:16:04;97993.09;;;22.24;63.79
9822;BME280;4950;46.042;14.472;2022-07-23T05:18:31;97985.53;;;22.11;63.17
9822;BME280;4950;46.042;14.472;2022-07-23T05:20:57;97985.84;;;22.14;62.34
9822;BME280;4950;46.042;14.472;2022-07-23T05:23:25;97980.06;;;22.17;62.00
9822;BME280;4950;46.042;14.472;2022-07-23T05:25:52;97985.53;;;22.11;61.74
9822;BME280;4950;46.042;14.472;2022-07-23T05:28:18;97982.09;;;22.10;62.31
9822;BME280;4950;46.042;14.472;2022-07-23T05:30:45;97987.44;;;22.15;62.62
9822;BME280;4950;46.042;14.472;2022-07-23T05:33:12;97976.88;;;22.15;62.71
9822;BME280;4950;46.042;14.472;2022-07-23T05:35:38;97976.38;;;22.18;62.70
9822;BME280;4950;46.042;14.472;2022-07-23T05:38:05;97974.13;;;22.27;62.99
9822;BME280;4950;46.042;14.472;2022-07-23T05:40:33;97973.94;;;22.34;62.84
9822;BME280;4950;46.042;14.472;2022-07-23T05:42:59;97966.06;;;22.39;62.75
9822;BME280;4950;46.042;14.472;2022-07-23T05:45:26;97968.47;;;22.40;61.85
9822;BME280;4950;46.042;14.472;2022-07-23T05:47:52;97965.31;;;22.43;62.17
9822;BME280;4950;46.042;14.472;2022-07-23T05:50:19;97973.53;;;22.47;61.56
9822;BME280;4950;46.042;14.472;2022-07-23T05:52:46;97974.09;;;22.49;61.89
9822;BME280;4950;46.042;14.472;2022-07-23T05:55:12;97971.75;;;22.53;62.17
9822;BME280;4950;46.042;14.472;2022-07-23T05:57:41;97974.69;;;22.56;61.79
9822;BME280;4950;46.042;14.472;2022-07-23T06:00:09;97980.84;;;22.62;62.12
9822;BME280;4950;46.042;14.472;2022-07-23T06:02:37;97980.09;;;22.66;62.03
9822;BME280;4950;46.042;14.472;2022-07-23T06:05:04;97975.34;;;22.68;61.59
9822;BME280;4950;46.042;14.472;2022-07-23T06:07:31;97974.84;;;22.72;61.88
9822;BME280;4950;46.042;14.472;2022-07-23T06:09:57;97978.59;;;22.76;61.90
9822;BME280;4950;46.042;14.472;2022-07-23T06:12:24;97976.50;;;22.78;61.80
9822;BME280;4950;46.042;14.472;2022-07-23T06:14:52;97977.03;;;22.80;62.14
9822;BME280;4950;46.042;14.472;2022-07-23T06:17:19;97972.28;;;22.82;61.90
9822;BME280;4950;46.042;14.472;2022-07-23T06:19:45;97973.63;;;22.84;62.36
9822;BME280;4950;46.042;14.472;2022-07-23T06:22:12;97973.38;;;22.86;62.31
9822;BME280;4950;46.042;14.472;2022-07-23T06:24:39;97971.28;;;22.88;62.18
9822;BME280;4950;46.042;14.472;2022-07-23T06:27:05;97972.38;;;22.92;62.39
9822;BME280;4950;46.042;14.472;2022-07-23T06:29:32;97965.28;;;22.98;62.75
9822;BME280;4950;46.042;14.472;2022-07-23T06:32:00;97968.22;;;23.01;62.30
9822;BME280;4950;46.042;14.472;2022-07-23T06:34:26;97980.25;;;23.09;61.78
9822;BME280;4950;46.042;14.472;2022-07-23T06:36:53;97981.31;;;23.13;61.87
9822;BME280;4950;46.042;14.472;2022-07-23T06:39:19;97979.22;;;23.15;61.03
9822;BME280;4950;46.042;14.472;2022-07-23T06:41:46;97979.28;;;23.20;61.90
9822;BME280;4950;46.042;14.472;2022-07-23T06:44:13;97984.88;;;23.24;60.84
9822;BME280;4950;46.042;14.472;2022-07-23T06:46:39;97989.38;;;23.29;60.55
9822;BME280;4950;46.042;14.472;2022-07-23T06:49:07;97982.28;;;23.34;60.62
9822;BME280;4950;46.042;14.472;2022-07-23T06:51:34;97987.34;;;23.41;59.65
9822;BME280;4950;46.042;14.472;2022-07-23T06:54:00;97986.31;;;23.47;59.37
9822;BME280;4950;46.042;14.472;2022-07-23T06:56:27;97989.03;;;23.52;59.76
9822;BME280;4950;46.042;14.472;2022-07-23T06:58:54;97977.41;;;23.58;59.37
9822;BME280;4950;46.042;14.472;2022-07-23T07:01:20;97973.97;;;23.63;59.24
9822;BME280;4950;46.042;14.472;2022-07-23T07:03:47;97982.75;;;23.69;59.82
9822;BME280;4950;46.042;14.472;2022-07-23T07:06:15;97983.91;;;23.78;58.86
9822;BME280;4950;46.042;14.472;2022-07-23T07:08:42;97984.47;;;23.85;58.58
9822;BME280;4950;46.042;14.472;2022-07-23T07:11:09;97986.09;;;23.91;57.39
9822;BME280;4950;46.042;14.472;2022-07-23T07:13:36;97991.97;;;23.98;57.53
9822;BME280;4950;46.042;14.472;2022-07-23T07:16:02;97986.66;;;24.03;57.58
9822;BME280;4950;46.042;14.472;2022-07-23T07:18:29;97985.38;;;24.11;56.59
9822;BME280;4950;46.042;14.472;2022-07-23T07:20:56;97986.97;;;24.17;56.49
9822;BME280;4950;46.042;14.472;2022-07-23T07:23:24;97987.28;;;24.26;57.50
9822;BME280;4950;46.042;14.472;2022-07-23T07:25:51;97988.09;;;24.37;57.43
9822;BME280;4950;46.042;14.472;2022-07-23T07:28:17;97983.09;;;24.46;57.13
9822;BME280;4950;46.042;14.472;2022-07-23T07:30:44;97987.63;;;24.50;57.05
9822;BME280;4950;46.042;14.472;2022-07-23T07:33:10;97985.81;;;24.56;56.92
9822;BME280;4950;46.042;14.472;2022-07-23T07:35:37;97984.22;;;24.70;56.22
9822;BME280;4950;46.042;14.472;2022-07-23T07:38:03;97982.41;;;24.81;56.55
9822;BME280;4950;46.042;14.472;2022-07-23T07:40:31;97981.34;;;24.87;56.31
9822;BME280;4950;46.042;14.472;2022-07-23T07:42:59;97991.69;;;24.94;55.92
9822;BME280;4950;46.042;14.472;2022-07-23T07:45:26;97985.59;;;24.98;56.34
9822;BME280;4950;46.042;14.472;2022-07-23T07:47:53;97982.41;;;25.07;56.18
9822;BME280;4950;46.042;14.472;2022-07-23T07:50:20;97976.28;;;25.16;55.93
9822;BME280;4950;46.042;14.472;2022-07-23T07:52:47;97969.38;;;25.20;55.46
9822;BME280;4950;46.042;14.472;2022-07-23T07:55:14;97972.03;;;25.31;55.36
9822;BME280;4950;46.042;14.472;2022-07-23T07:57:42;97975.75;;;25.40;55.78
9822;BME280;4950;46.042;14.472;2022-07-23T08:00:09;97973.91;;;25.51;55.14
9822;BME280;4950;46.042;14.472;2022-07-23T08:02:44;97979.19;;;25.61;54.07
9822;BME280;4950;46.042;14.472;2022-07-23T08:05:12;97970.38;;;25.71;53.67
9822;BME280;4950;46.042;14.472;2022-07-23T08:07:38;97969.00;;;25.84;54.16
9822;BME280;4950;46.042;14.472;2022-07-23T08:10:06;97969.25;;;26.03;53.69
9822;BME280;4950;46.042;14.472;2022-07-23T08:12:43;97975.31;;;26.13;52.42
9822;BME280;4950;46.042;14.472;2022-07-23T08:15:11;97965.47;;;26.19;52.97
9822;BME280;4950;46.042;14.472;2022-07-23T08:17:38;97967.81;;;26.26;53.59
9822;BME280;4950;46.042;14.472;2022-07-23T08:20:06;97970.91;;;26.43;52.43
9822;BME280;4950;46.042;14.472;2022-07-23T08:22:48;97968.75;;;26.50;52.11
9822;BME280;4950;46.042;14.472;2022-07-23T08:25:15;97972.44;;;26.59;52.15
9822;BME280;4950;46.042;14.472;2022-07-23T08:27:44;97973.16;;;26.70;51.55
9822;BME280;4950;46.042;14.472;2022-07-23T08:30:10;97969.91;;;26.78;51.08
9822;BME280;4950;46.042;14.472;2022-07-23T08:32:51;97968.53;;;26.81;51.24
9822;BME280;4950;46.042;14.472;2022-07-23T08:35:21;97966.91;;;26.85;51.18
9822;BME280;4950;46.042;14.472;2022-07-23T08:37:48;97965.25;;;26.94;51.13
9822;BME280;4950;46.042;14.472;2022-07-23T08:40:14;97955.31;;;27.05;50.12
9822;BME280;4950;46.042;14.472;2022-07-23T08:42:41;97956.75;;;27.22;49.40
9822;BME280;4950;46.042;14.472;2022-07-23T08:45:11;97950.28;;;27.33;49.18
9822;BME280;4950;46.042;14.472;2022-07-23T08:47:38;97948.25;;;27.49;48.26
9822;BME280;4950;46.042;14.472;2022-07-23T08:50:07;97952.69;;;27.58;48.93
9822;BME280;4950;46.042;14.472;2022-07-23T08:52:34;97959.00;;;27.68;49.47
9822;BME280;4950;46.042;14.472;2022-07-23T08:55:01;97957.28;;;27.77;49.23
9822;BME280;4950;46.042;14.472;2022-07-23T08:57:27;97952.16;;;27.81;48.35
9822;BME280;4950;46.042;14.472;2022-07-23T08:59:54;97948.66;;;27.85;48.78
9822;BME280;4950;46.042;14.472;2022-07-23T09:02:22;97943.78;;;27.92;47.79
9822;BME280;4950;46.042;14.472;2022-07-23T09:04:48;97943.97;;;28.01;48.62
9822;BME280;4950;46.042;14.472;2022-07-23T09:07:15;97948.28;;;28.16;47.65
9822;BME280;4950;46.042;14.472;2022-07-23T09:09:42;97949.03;;;28.22;48.08
9822;BME280;4950;46.042;14.472;2022-07-23T09:12:09;97945.13;;;28.33;47.61
9822;BME280;4950;46.042;14.472;2022-07-23T09:14:38;97946.88;;;28.43;47.04
9822;BME280;4950;46.042;14.472;2022-07-23T09:17:09;97939.72;;;28.57;47.58
9822;BME280;4950;46.042;14.472;2022-07-23T09:19:37;97948.13;;;28.69;47.34
9822;BME280;4950;46.042;14.472;2022-07-23T09:22:20;97941.72;;;28.84;48.33
9822;BME280;4950;46.042;14.472;2022-07-23T09:25:04;97942.28;;;29.00;47.95
9822;BME280;4950;46.042;14.472;2022-07-23T09:27:46;97932.47;;;29.09;47.54
9822;BME280;4950;46.042;14.472;2022-07-23T09:30:13;97929.97;;;29.32;45.76
9822;BME280;4950;46.042;14.472;2022-07-23T09:32:40;97924.84;;;29.49;46.15
9822;BME280;4950;46.042;14.472;2022-07-23T09:35:08;97928.09;;;29.60;45.50
9822;BME280;4950;46.042;14.472;2022-07-23T09:37:35;97918.59;;;29.68;44.42
9822;BME280;4950;46.042;14.472;2022-07-23T09:40:06;97918.31;;;29.83;43.58
9822;BME280;4950;46.042;14.472;2022-07-23T09:42:34;97913.94;;;29.87;42.90
9822;BME280;4950;46.042;14.472;2022-07-23T09:45:01;97916.72;;;29.96;42.74
9822;BME280;4950;46.042;14.472;2022-07-23T09:47:29;97913.81;;;30.06;40.73
9822;BME280;4950;46.042;14.472;2022-07-23T09:50:00;97910.31;;;30.20;40.75
9822;BME280;4950;46.042;14.472;2022-07-23T09:52:32;97911.72;;;30.31;40.29
9822;BME280;4950;46.042;14.472;2022-07-23T09:55:01;97915.13;;;30.45;40.82
9822;BME280;4950;46.042;14.472;2022-07-23T09:57:28;97911.28;;;30.60;39.32
9822;BME280;4950;46.042;14.472;2022-07-23T09:59:58;97908.56;;;30.74;39.45
9822;BME280;4950;46.042;14.472;2022-07-23T10:02:28;97902.94;;;30.84;39.04
9822;BME280;4950;46.042;14.472;2022-07-23T10:04:54;97901.59;;;30.96;39.58
9822;BME280;4950;46.042;14.472;2022-07-23T10:07:22;97901.66;;;31.04;38.35
9822;BME280;4950;46.042;14.472;2022-07-23T10:09:50;97892.06;;;31.12;38.86
9822;BME280;4950;46.042;14.472;2022-07-23T10:12:19;97887.72;;;31.25;38.94
9822;BME280;4950;46.042;14.472;2022-07-23T10:15:02;97887.72;;;31.34;39.07
9822;BME280;4950;46.042;14.472;2022-07-23T10:17:30;97882.88;;;31.44;38.93
9822;BME280;4950;46.042;14.472;2022-07-23T10:19:57;97881.97;;;31.58;37.77
9822;BME280;4950;46.042;14.472;2022-07-23T10:22:25;97871.91;;;31.72;36.64
9822;BME280;4950;46.042;14.472;2022-07-23T10:25:00;97870.03;;;31.90;34.79
9822;BME280;4950;46.042;14.472;2022-07-23T10:28:01;97873.56;;;32.25;33.33
9822;BME280;4950;46.042;14.472;2022-07-23T10:30:38;97866.91;;;32.49;32.22
9822;BME280;4950;46.042;14.472;2022-07-23T10:33:20;97866.28;;;32.70;31.53
9822;BME280;4950;46.042;14.472;2022-07-23T10:35:54;97865.59;;;32.81;31.12
9822;BME280;4950;46.042;14.472;2022-07-23T10:38:25;97856.41;;;32.91;29.03
9822;BME280;4950;46.042;14.472;2022-07-23T10:40:56;97857.59;;;33.02;27.78
9822;BME280;4950;46.042;14.472;2022-07-23T10:43:24;97858.84;;;33.22;29.08
9822;BME280;4950;46.042;14.472;2022-07-23T10:45:51;97853.25;;;33.28;28.78
9822;BME280;4950;46.042;14.472;2022-07-23T10:48:20;97856.56;;;33.33;29.27
9822;BME280;4950;46.042;14.472;2022-07-23T10:51:14;97853.03;;;33.41;30.24
9822;BME280;4950;46.042;14.472;2022-07-23T10:53:55;97842.81;;;33.56;26.56
9822;BME280;4950;46.042;14.472;2022-07-23T10:57:04;97844.44;;;33.78;25.36
9822;BME280;4950;46.042;14.472;2022-07-23T11:02:34;97830.88;;;34.08;24.61
9822;BME280;4950;46.042;14.472;2022-07-23T11:05:04;97825.91;;;34.18;25.12
9822;BME280;4950;46.042;14.472;2022-07-23T11:07:32;97818.75;;;34.22;26.17
9822;BME280;4950;46.042;14.472;2022-07-23T11:09:59;97820.03;;;34.37;24.33
9822;BME280;4950;46.042;14.472;2022-07-23T11:12:33;97819.28;;;34.49;24.12
9822;BME280;4950;46.042;14.472;2022-07-23T11:15:05;97812.22;;;34.57;25.23
9822;BME280;4950;46.042;14.472;2022-07-23T11:17:34;97815.00;;;34.60;25.87
9822;BME280;4950;46.042;14.472;2022-07-23T11:20:16;97815.53;;;34.75;24.93
9822;BME280;4950;46.042;14.472;2022-07-23T11:22:49;97806.53;;;34.83;24.81
9822;BME280;4950;46.042;14.472;2022-07-23T11:25:31;97804.97;;;34.94;24.81
9822;BME280;4950;46.042;14.472;2022-07-23T11:28:15;97806.56;;;35.08;24.96
9822;BME280;4950;46.042;14.472;2022-07-23T11:30:44;97800.81;;;35.09;25.15
9822;BME280;4950;46.042;14.472;2022-07-23T11:33:19;97798.47;;;35.20;24.90
9822;BME280;4950;46.042;14.472;2022-07-23T11:35:49;97798.72;;;35.27;24.75
9822;BME280;4950;46.042;14.472;2022-07-23T11:38:18;97792.16;;;35.40;24.55
9822;BME280;4950;46.042;14.472;2022-07-23T11:40:47;97782.81;;;35.38;25.10
9822;BME280;4950;46.042;14.472;2022-07-23T11:43:16;97783.38;;;35.44;25.22
9822;BME280;4950;46.042;14.472;2022-07-23T11:45:45;97776.28;;;35.51;25.46
9822;BME280;4950;46.042;14.472;2022-07-23T11:48:17;97768.13;;;35.64;25.70
9822;BME280;4950;46.042;14.472;2022-07-23T11:50:44;97769.03;;;35.68;25.05
9822;BME280;4950;46.042;14.472;2022-07-23T11:53:11;97768.91;;;35.76;24.90
9822;BME280;4950;46.042;14.472;2022-07-23T11:55:37;97765.72;;;35.87;25.27
9822;BME280;4950;46.042;14.472;2022-07-23T11:58:04;97762.34;;;35.90;24.75
9822;BME280;4950;46.042;14.472;2022-07-23T12:00:33;97767.81;;;35.93;25.82
9822;BME280;4950;46.042;14.472;2022-07-23T12:03:01;97763.66;;;35.96;25.59
9822;BME280;4950;46.042;14.472;2022-07-23T12:05:29;97752.13;;;35.99;25.04
9822;BME280;4950;46.042;14.472;2022-07-23T12:07:57;97756.75;;;35.98;24.92
9822;BME280;4950;46.042;14.472;2022-07-23T12:10:27;97759.56;;;36.02;24.12
9822;BME280;4950;46.042;14.472;2022-07-23T12:12:56;97749.00;;;35.97;24.09
9822;BME280;4950;46.042;14.472;2022-07-23T12:15:24;97741.09;;;36.04;25.32
9822;BME280;4950;46.042;14.472;2022-07-23T12:17:53;97749.28;;;36.08;25.34
9822;BME280;4950;46.042;14.472;2022-07-23T12:20:22;97739.44;;;36.15;24.93
9822;BME280;4950;46.042;14.472;2022-07-23T12:22:51;97741.13;;;36.20;25.11
9822;BME280;4950;46.042;14.472;2022-07-23T12:25:20;97731.19;;;36.24;25.30
9822;BME280;4950;46.042;14.472;2022-07-23T12:27:58;97735.31;;;36.34;25.01
9822;BME280;4950;46.042;14.472;2022-07-23T12:30:26;97733.03;;;36.36;24.27
9822;BME280;4950;46.042;14.472;2022-07-23T12:32:55;97732.34;;;36.39;24.46
9822;BME280;4950;46.042;14.472;2022-07-23T12:35:30;97743.31;;;36.46;23.91
9822;BME280;4950;46.042;14.472;2022-07-23T12:38:00;97736.25;;;36.42;23.88
9822;BME280;4950;46.042;14.472;2022-07-23T12:40:29;97731.63;;;36.42;23.72
9822;BME280;4950;46.042;14.472;2022-07-23T12:42:58;97721.69;;;36.46;23.57
9822;BME280;4950;46.042;14.472;2022-07-23T12:45:26;97718.72;;;36.51;23.87
9822;BME280;4950;46.042;14.472;2022-07-23T12:48:00;97719.34;;;36.61;23.15
9822;BME280;4950;46.042;14.472;2022-07-23T12:50:41;97718.91;;;36.59;22.81
9822;BME280;4950;46.042;14.472;2022-07-23T12:53:11;97721.19;;;36.56;23.08
9822;BME280;4950;46.042;14.472;2022-07-23T12:55:39;97725.78;;;36.56;22.96
9822;BME280;4950;46.042;14.472;2022-07-23T12:58:09;97724.22;;;36.55;22.99
9822;BME280;4950;46.042;14.472;2022-07-23T13:00:53;97725.88;;;36.60;23.11
9822;BME280;4950;46.042;14.472;2022-07-23T13:03:23;97712.34;;;36.60;21.24
9822;BME280;4950;46.042;14.472;2022-07-23T13:05:50;97715.84;;;36.60;22.82
9822;BME280;4950;46.042;14.472;2022-07-23T13:08:17;97717.66;;;36.56;22.39
9822;BME280;4950;46.042;14.472;2022-07-23T13:10:44;97718.19;;;36.62;23.01
9822;BME280;4950;46.042;14.472;2022-07-23T13:13:14;97715.25;;;36.67;22.75
9822;BME280;4950;46.042;14.472;2022-07-23T13:15:40;97712.56;;;36.67;21.47
9822;BME280;4950;46.042;14.472;2022-07-23T13:18:07;97704.88;;;36.69;22.94